Airfield :
LOGIN :

Register | Disclaimer

   EN    FR    IT 

 










Legend :    VFR   Marginal VFR   IFR   Intensive IFR   Very Intensive IFR
Visi :
Ceiling :
>= 8 km
>= 3000ft
5 to 8 km
1000 to 3000 ft
1500m to 5 km
500 to 1000 ft
800 to 1500m
200 to 500 ft
< 800m
< 200 ft
Symbols :   Thunderstorms  Fog  Heavy snow  Heavy precipitations  Wind > 20 kt
SIGMETs :     Misc.  Thunderstorms  Icing  Turbulence  Mountain Waves  Volcanic Ashes






- Airport Elevation : 1090 ft
- IATA code : CFE


LFLC - Clermont-Ferrand Auvergne

CURRENT METAR :
  • 221030Z AUTO 10004KT 040V180 CAVOK 16/04 Q1019 NOSIG

EXPIRED METARs :
  • 221000Z AUTO VRB04KT CAVOK 16/05 Q1019 NOSIG
  • 220930Z AUTO 18005KT 130V230 CAVOK 15/05 Q1019 NOSIG
  • 220900Z AUTO VRB04KT CAVOK 14/05 Q1019 NOSIG
  • 220830Z AUTO 16004KT 120V200 CAVOK 14/06 Q1019 NOSIG
  • 220800Z AUTO 16003KT 130V210 CAVOK 12/06 Q1019 NOSIG

TAF TAF LFLC
Valid from the 22 at 06:00 until the 23 at 06:00 UTC


220500Z 2206/2306 18003KT 9999 BKN050
PROB30
TEMPO 2206/2207 0500 BCFG VV///
BECMG 2209/2212 03009KT FEW050
PROB40
TEMPO 2213/2220 BKN060
ATIS : +33 4 73 62 74 38



MET'MAP, your aeronautical weather chart ! - Copyright ORBIFLY December 2007 - Disclaimer

ORBIFLY MET'MAP TEAM :

Programming & Development : Alexandra Zaïnal
Concept & original design : Baudouin d'Aumeries
Assistance for programming : Marc-Olivier Méhu
Technical & hardware support : Manuel Goepfert

Contact : metmap@orbifly.com




SOURCES & CREDITS :

   NOAA